Startpagina
METAR-TAF:

METAR-TAF

Vliegvelden :

Incheon International Airport

Seoel-Incheon, Zuid-Korea

breedte: 37-28N, lengte: 126-27E, hoogte: 7 m

Actueel weer

Dit bericht is 28 minuten geleden gemaakt, om 21:30 UTC
Wind 2 kt uit het westnoordwesten
Temperatuur 19°C
Vochtigheid 83%
Druk 1008 hPa
Zicht: 6000 m

METAR: RKSI 172130Z 30002KT 6000 NSC 19/16 Q1008 NOSIG

Tijdstip: 06:58 (21:58 UTC)

Verwachting

Dit bericht is 4 uur en het 58 minuten geleden gemaakt, om 17:00 UTC
Verwachting geldig van 17 om 18 UTC tot 18 om 24 UTC
Wind 7 kt uit het noordwesten
Zicht 10 km of meer
geen wolken onder 1500 m en geen cumulonimbus
Wijzigt naar
van 18 om 16 UTC tot 18 om 17 UTC
Wind 5 kt uit het westzuidwesten
Zicht: 3500 m
Weinig wolken op 500 ft
nevel
Wijzigt naar
van 18 om 23 UTC tot 18 om 24 UTC
Wind 6 kt uit het noordwesten
Zicht: 6000 m

TAF: RKSI 171700Z 1718/1824 32007KT CAVOK TN19/1721Z TX27/1806Z TN19/1821Z BECMG 1816/1817 25005KT 3500 BR FEW005 BECMG 1823/1824 31006KT 6000 NSW

Waarnemingen en weersverwachtingen van meer dan 4000 vliegvelden (METAR en TAF).

De beschikbare stations zijn de gele en rode punten op de kaart.

Ga met uw muis naar het station om de naam te zien.

Klik dan om waarnemingen en weersverwachtingen te zien.

kaart wijzigen: klik op de groene knoppen met een zwart kruis om in te zoomen, op de groene knop met een streepje om uit te zoomen of op de groene pijlen voor aangrenzende kaarten.


METAR-TAF: